White Hall, Texas
Current Conditions -  °F | °C
As of 11:15 PM on Friday 19 Dec 2014 (Local Time) from K11R Reporting Station
Overcast Overcast  
Wind Chill: 52°   Ceiling: 1200
Heat Index: 52°   Visibility: 7mi
Dew Point: 50°   Wind: 10mph
Humidity: 93%   Direction: 350°N
Pressure: 30.17"   Gusts: NA
Location:  30.367°N, 96.0045°W
Report Text: K11R 200515Z AUTO 35009KT 7SM OVC012 11/10 A3017 RMK AO2 T01110100
Loading
Personal Weather Stations






























Interactive Weather Map New forecast layout! Learn more

10-Day Weather Forecast

Advertisements
Track Severe Weather on mobile